Time;durP1;ratioP1;P1;durP2;ratioP2;P2;SDS_P1;SDS_P2;PMS_P1;PMS_P2;Temp;Humidity;BMP_temperature;BMP_pressure;BME280_temperature;BME280_humidity;BME280_pressure;Samples;Min_cycle;Max_cycle;Signal;HPM_P1;HPM_P2
2022/08/05 00:01:01;;;;;;;1.20;0.47;;;;;;;24.98;58.31;100555.97;5029829;28;20089;-59
2022/08/05 00:03:27;;;;;;;3.25;0.40;;;;;;;25.01;58.45;100552.84;5029742;28;20026;-59
2022/08/05 00:05:52;;;;;;;1.30;0.40;;;;;;;25.09;58.06;100555.09;5022507;28;20489;-59
2022/08/05 00:08:18;;;;;;;2.05;0.50;;;;;;;25.10;57.94;100546.06;5027619;28;20072;-59
2022/08/05 00:10:44;;;;;;;1.95;0.47;;;;;;;25.14;57.59;100537.34;5024315;28;20115;-59
2022/08/05 00:13:10;;;;;;;1.15;0.40;;;;;;;25.26;57.01;100549.84;5023686;28;20489;-59
2022/08/05 00:15:35;;;;;;;1.02;0.30;;;;;;;25.34;56.44;100552.94;5008325;28;20030;-59
2022/08/05 00:18:01;;;;;;;3.95;0.50;;;;;;;25.39;56.41;100542.34;5022844;28;20033;-60
2022/08/05 00:20:26;;;;;;;2.72;0.30;;;;;;;25.33;56.91;100548.63;5029470;28;20033;-58
2022/08/05 00:22:52;;;;;;;1.77;0.50;;;;;;;25.19;57.38;100549.97;5023565;28;20397;-59
2022/08/05 00:25:17;;;;;;;1.88;0.50;;;;;;;25.12;57.76;100549.31;5019222;28;20497;-60
2022/08/05 00:27:43;;;;;;;2.17;0.40;;;;;;;25.06;58.30;100540.41;5022370;28;20146;-59
2022/08/05 00:30:09;;;;;;;3.72;0.50;;;;;;;25.04;58.50;100544.38;5027039;28;20037;-58
2022/08/05 00:32:34;;;;;;;1.52;0.30;;;;;;;24.93;58.72;100540.66;5022080;28;20436;-59
2022/08/05 00:35:00;;;;;;;1.60;0.50;;;;;;;24.84;59.13;100527.94;5022428;28;20128;-59
2022/08/05 00:37:25;;;;;;;0.90;0.50;;;;;;;24.73;59.48;100524.28;5024956;28;20127;-59
2022/08/05 00:39:51;;;;;;;2.25;0.55;;;;;;;24.71;59.79;100524.50;5027485;28;20038;-60
2022/08/05 00:42:38;;;;;;;1.55;0.40;;;;;;;24.69;59.59;100523.13;5026538;28;20041;-59
2022/08/05 00:45:06;;;;;;;3.78;0.50;;;;;;;24.74;59.01;100515.22;5006025;28;20463;-61
2022/08/05 00:47:32;;;;;;;2.20;0.45;;;;;;;24.76;59.44;100516.63;5024404;28;20033;-59
2022/08/05 00:49:57;;;;;;;5.25;0.70;;;;;;;24.76;59.15;100516.63;5027280;28;20076;-59
2022/08/05 00:52:23;;;;;;;3.05;0.47;;;;;;;24.77;59.30;100510.25;5019190;28;20044;-59
2022/08/05 00:54:49;;;;;;;1.77;0.50;;;;;;;24.68;60.02;100511.66;5011256;28;20389;-59
2022/08/05 00:57:14;;;;;;;1.45;0.60;;;;;;;24.60;60.32;100506.69;5027517;28;20025;-59
2022/08/05 00:59:40;;;;;;;3.53;0.60;;;;;;;24.51;60.32;100502.81;5024180;28;20036;-59
2022/08/05 01:02:06;;;;;;;1.70;0.50;;;;;;;24.48;60.66;100498.75;5015333;28;20025;-60
2022/08/05 01:04:31;;;;;;;2.10;0.50;;;;;;;24.47;60.77;100496.31;5023266;28;20028;-59
2022/08/05 01:06:57;;;;;;;4.00;0.52;;;;;;;24.47;60.75;100499.00;5022492;28;20466;-59
2022/08/05 01:09:23;;;;;;;1.27;0.60;;;;;;;24.53;60.41;100503.38;5024569;28;20354;-59
2022/08/05 01:11:52;;;;;;;4.22;0.60;;;;;;;24.54;60.18;100499.66;5018080;28;20494;-59
2022/08/05 01:14:40;;;;;;;1.42;0.57;;;;;;;24.51;60.82;100509.97;5005062;28;20041;-59
2022/08/05 01:17:10;;;;;;;1.58;0.60;;;;;;;24.43;61.35;100503.97;5025308;28;20196;-59
2022/08/05 01:19:41;;;;;;;3.63;0.60;;;;;;;24.35;61.82;100511.50;5027367;28;20041;-59
2022/08/05 01:22:19;;;;;;;2.78;1.38;;;;;;;24.28;62.32;100500.16;5025515;28;20478;-59
2022/08/05 01:25:12;;;;;;;4.38;0.82;;;;;;;24.20;63.13;100511.13;5024837;28;20482;-59
2022/08/05 01:27:56;;;;;;;2.85;0.52;;;;;;;24.14;63.50;100507.53;5025129;28;20033;-59
2022/08/05 01:30:25;;;;;;;1.00;0.60;;;;;;;24.16;63.29;100502.81;5021466;28;20091;-59
2022/08/05 01:32:55;;;;;;;1.33;0.50;;;;;;;24.18;62.89;100500.72;5025168;28;20037;-59
2022/08/05 01:35:26;;;;;;;4.53;0.70;;;;;;;24.17;62.53;100499.91;5019823;28;20038;-58
2022/08/05 01:37:54;;;;;;;3.15;0.60;;;;;;;24.22;62.04;100499.22;5020196;28;20029;-58
2022/08/05 01:40:25;;;;;;;2.10;0.60;;;;;;;24.30;61.74;100487.44;5019766;28;20033;-59
2022/08/05 01:42:52;;;;;;;5.03;0.63;;;;;;;24.35;61.44;100490.22;4999412;28;20052;-58
2022/08/05 01:45:20;;;;;;;3.67;0.63;;;;;;;24.40;61.20;100488.47;5008287;28;20494;-59
2022/08/05 01:47:49;;;;;;;3.00;0.40;;;;;;;24.43;60.77;100489.84;5008506;28;20710;-59
2022/08/05 01:50:39;;;;;;;0.70;0.45;;;;;;;24.41;61.17;100491.94;5007704;28;20037;-59
2022/08/05 01:53:13;;;;;;;4.00;0.90;;;;;;;24.35;61.54;100488.34;5009039;28;20125;-59
2022/08/05 01:55:42;;;;;;;1.35;0.50;;;;;;;24.26;61.75;100491.59;4994872;28;20029;-59
2022/08/05 01:58:11;;;;;;;4.00;0.47;;;;;;;24.22;62.07;100487.75;5011436;28;20113;-59
2022/08/05 02:00:40;;;;;;;2.80;0.57;;;;;;;24.26;62.05;100489.75;5012038;28;20029;-58
2022/08/05 02:03:30;;;;;;;1.10;0.43;;;;;;;24.24;62.08;100489.16;5012086;28;20117;-59
2022/08/05 02:05:56;;;;;;;2.80;0.52;;;;;;;24.21;62.23;100488.81;5012275;28;20025;-58
2022/08/05 02:08:22;;;;;;;2.72;0.60;;;;;;;24.14;62.32;100495.06;5011287;28;20500;-61
2022/08/05 02:10:51;;;;;;;2.85;0.50;;;;;;;24.13;62.77;100493.44;5012125;28;20030;-59
2022/08/05 02:13:27;;;;;;;1.75;0.40;;;;;;;24.07;63.07;100494.38;5008860;28;20427;-59
2022/08/05 02:16:13;;;;;;;5.47;0.73;;;;;;;24.06;63.50;100492.75;4984076;28;20034;-60
2022/08/05 02:18:38;;;;;;;;;;;;;;;24.01;63.95;100499.81;5008484;28;20038;-59
2022/08/05 02:21:11;;;;;;;3.03;0.60;;;;;;;24.02;63.27;100491.59;5011750;28;19972;-59
2022/08/05 02:23:40;;;;;;;2.65;0.77;;;;;;;24.04;63.19;100494.03;5010892;28;20402;-59
2022/08/05 02:26:08;;;;;;;0.82;0.40;;;;;;;24.03;63.27;100493.22;5009868;28;20504;-58
2022/08/05 02:28:37;;;;;;;1.27;0.43;;;;;;;24.01;63.65;100489.19;5010433;28;20041;-58
2022/08/05 02:31:11;;;;;;;3.53;0.45;;;;;;;23.94;63.95;100494.63;4994147;28;20034;-59
2022/08/05 02:33:46;;;;;;;2.33;0.50;;;;;;;23.90;64.29;100488.13;5006645;28;20049;-58
2022/08/05 02:36:15;;;;;;;4.50;0.60;;;;;;;23.86;64.67;100491.47;5009370;28;20120;-60
2022/08/05 02:38:45;;;;;;;5.28;0.50;;;;;;;23.81;64.64;100492.19;5005032;28;20048;-60
2022/08/05 02:41:11;;;;;;;0.73;0.50;;;;;;;23.83;64.72;100487.44;5010246;28;20424;-59
2022/08/05 02:43:40;;;;;;;2.97;0.60;;;;;;;23.87;64.24;100483.28;5025381;28;20050;-59
2022/08/05 02:46:06;;;;;;;1.88;0.60;;;;;;;23.87;64.40;100482.47;5023121;28;20037;-59
2022/08/05 02:48:33;;;;;;;4.28;0.65;;;;;;;23.83;64.54;100476.78;5011334;28;20029;-59
2022/08/05 02:51:02;;;;;;;2.90;0.55;;;;;;;23.87;64.40;100471.81;5015881;28;20036;-59
2022/08/05 02:53:30;;;;;;;4.15;1.10;;;;;;;23.89;63.97;100478.53;5026172;28;20109;-59
2022/08/05 02:55:57;;;;;;;1.95;0.88;;;;;;;23.85;64.32;100479.22;5030823;28;20029;-59
2022/08/05 02:58:24;;;;;;;1.45;0.60;;;;;;;23.80;64.55;100471.94;5019548;28;20044;-59
2022/08/05 03:00:54;;;;;;;2.35;0.50;;;;;;;23.74;65.16;100478.16;5023026;28;20541;-59
2022/08/05 03:03:21;;;;;;;2.75;0.57;;;;;;;23.71;65.56;100482.09;5022105;28;20037;-60
2022/08/05 03:05:48;;;;;;;2.03;0.70;;;;;;;23.71;65.19;100468.00;5009998;28;20026;-60
2022/08/05 03:08:15;;;;;;;1.35;0.55;;;;;;;23.72;65.40;100470.41;5006300;28;20584;-59
2022/08/05 03:10:44;;;;;;;2.17;0.70;;;;;;;23.65;65.94;100475.03;4992327;28;20040;-59
2022/08/05 03:13:14;;;;;;;3.00;0.68;;;;;;;23.57;66.13;100477.25;5029534;28;20080;-59
2022/08/05 03:15:47;;;;;;;2.85;0.60;;;;;;;23.53;66.39;100476.06;5029452;28;20029;-58
2022/08/05 03:18:13;;;;;;;3.13;0.70;;;;;;;23.52;66.42;100477.09;5018262;28;20076;-61
2022/08/05 03:20:39;;;;;;;3.00;0.63;;;;;;;23.46;66.50;100476.97;5012193;28;20088;-60
2022/08/05 03:23:07;;;;;;;1.08;0.70;;;;;;;23.46;66.42;100469.00;5004812;28;20033;-60
2022/08/05 03:25:34;;;;;;;3.08;0.60;;;;;;;23.45;66.82;100472.69;5028317;28;20033;-58
2022/08/05 03:28:02;;;;;;;1.35;0.70;;;;;;;23.44;67.00;100467.59;5023080;28;20116;-59
2022/08/05 03:30:31;;;;;;;2.58;0.70;;;;;;;23.36;67.34;100474.06;5019982;28;20030;-61
2022/08/05 03:33:01;;;;;;;4.00;0.65;;;;;;;23.37;67.38;100470.34;5026476;28;20061;-59
2022/08/05 03:35:28;;;;;;;3.20;1.05;;;;;;;23.33;67.67;100471.84;5000700;28;20026;-59
2022/08/05 03:37:57;;;;;;;3.17;0.70;;;;;;;23.30;68.19;100472.31;5015229;28;20037;-59
2022/08/05 03:40:23;;;;;;;1.88;0.70;;;;;;;;;;5021174;28;20110;-59
2022/08/05 03:42:48;;;;;;;2.50;0.70;;;;;;;23.23;68.88;100468.13;5020710;28;20064;-59
2022/08/05 03:45:14;;;;;;;1.30;0.70;;;;;;;23.17;69.40;100475.97;5030192;28;20079;-59
2022/08/05 03:47:40;;;;;;;3.97;0.90;;;;;;;23.14;69.59;100473.78;5024220;28;20034;-61
2022/08/05 03:50:05;;;;;;;2.58;0.68;;;;;;;23.09;69.52;100472.84;5007341;28;20026;-58
2022/08/05 03:52:34;;;;;;;3.55;0.90;;;;;;;23.06;70.10;100470.63;4997190;28;20030;-59
2022/08/05 03:55:04;;;;;;;4.85;0.93;;;;;;;23.08;69.90;100477.34;4990180;28;20092;-59
2022/08/05 03:57:32;;;;;;;1.42;0.73;;;;;;;23.10;69.58;100466.50;5007632;28;20026;-60
2022/08/05 04:00:06;;;;;;;2.38;0.80;;;;;;;23.11;69.76;100476.09;4990783;28;20034;-59
2022/08/05 04:02:35;;;;;;;2.55;1.05;;;;;;;23.10;69.84;100482.44;5007569;28;20038;-59
2022/08/05 04:05:02;;;;;;;1.75;0.93;;;;;;;23.09;69.44;100468.34;5001368;28;20030;-59
2022/08/05 04:07:28;;;;;;;2.25;0.82;;;;;;;23.14;69.21;100468.47;5005802;28;20038;-59
2022/08/05 04:09:54;;;;;;;2.85;0.80;;;;;;;23.15;69.46;100475.41;5009179;28;20340;-61
2022/08/05 04:12:19;;;;;;;3.83;0.80;;;;;;;23.13;69.80;100466.84;5007632;28;20041;-59
2022/08/05 04:14:46;;;;;;;1.27;0.70;;;;;;;23.10;69.86;100475.28;4994609;28;20491;-60
2022/08/05 04:17:12;;;;;;;2.83;0.82;;;;;;;23.05;70.17;100477.78;4995007;28;20398;-59
2022/08/05 04:19:43;;;;;;;1.92;0.75;;;;;;;23.04;70.44;100480.66;4999245;28;20090;-59
2022/08/05 04:22:08;;;;;;;4.03;1.33;;;;;;;23.05;69.97;100479.63;4988309;28;20036;-61
2022/08/05 04:24:34;;;;;;;2.47;0.60;;;;;;;23.02;70.34;100485.41;5008677;28;20030;-61
2022/08/05 04:26:59;;;;;;;4.55;0.90;;;;;;;23.04;69.87;100486.00;5006396;28;20053;-63
2022/08/05 04:29:25;;;;;;;2.08;0.60;;;;;;;23.03;69.84;100482.53;5006015;28;20378;-62
2022/08/05 04:31:50;;;;;;;1.92;0.75;;;;;;;23.04;69.94;100480.66;5004961;28;20082;-61
2022/08/05 04:34:16;;;;;;;3.30;0.88;;;;;;;23.06;70.01;100487.38;5009503;28;20034;-62
2022/08/05 04:36:41;;;;;;;3.05;0.85;;;;;;;23.12;69.60;100483.03;5007320;28;20029;-62
2022/08/05 04:39:07;;;;;;;1.25;0.80;;;;;;;23.16;69.34;100482.31;5008238;28;20529;-59
2022/08/05 04:41:32;;;;;;;1.52;0.70;;;;;;;23.18;69.27;100480.25;5007829;28;20037;-58
2022/08/05 04:43:58;;;;;;;4.40;0.80;;;;;;;23.18;69.20;100484.75;5016855;28;20061;-59
2022/08/05 04:46:23;;;;;;;1.92;0.65;;;;;;;23.16;69.67;100486.81;5026775;28;20033;-58
2022/08/05 04:48:49;;;;;;;1.20;0.90;;;;;;;23.18;68.62;100485.56;5028203;28;20033;-59
2022/08/05 04:51:16;;;;;;;2.45;0.90;;;;;;;23.29;68.13;100486.63;5026171;28;20800;-58
2022/08/05 04:53:41;;;;;;;1.65;0.93;;;;;;;23.37;68.20;100488.16;5013848;28;20030;-58
2022/08/05 04:56:08;;;;;;;4.70;1.02;;;;;;;23.38;68.20;100487.13;5009118;28;20056;-59
2022/08/05 04:58:33;;;;;;;4.13;1.30;;;;;;;23.44;67.70;100487.03;5014459;28;20112;-58
2022/08/05 05:00:59;;;;;;;3.95;1.20;;;;;;;23.37;68.36;100486.31;5026596;28;20120;-59
2022/08/05 05:03:24;;;;;;;7.40;1.40;;;;;;;23.38;68.94;100492.44;5027784;28;20370;-59
2022/08/05 05:05:50;;;;;;;2.35;1.10;;;;;;;23.36;69.15;100487.34;5028957;28;20486;-62
2022/08/05 05:08:15;;;;;;;2.95;0.85;;;;;;;23.42;68.76;100481.13;5024055;28;20520;-61
2022/08/05 05:10:45;;;;;;;2.85;0.80;;;;;;;23.48;68.95;100488.19;5022817;28;20489;-63
2022/08/05 05:13:13;;;;;;;3.97;1.13;;;;;;;23.46;69.13;100484.94;4993643;28;20552;-60
2022/08/05 05:15:39;;;;;;;3.75;1.15;;;;;;;23.50;68.83;100488.78;5008740;28;20025;-59
2022/08/05 05:18:05;;;;;;;4.50;1.30;;;;;;;23.56;68.79;100487.06;5026079;28;20479;-58
2022/08/05 05:20:31;;;;;;;3.53;0.90;;;;;;;23.65;68.30;100490.19;5027826;28;20049;-59
2022/08/05 05:23:00;;;;;;;3.15;1.00;;;;;;;23.74;67.79;100486.16;5021237;28;20080;-58
2022/08/05 05:25:26;;;;;;;2.92;1.10;;;;;;;23.78;67.56;100482.81;5027925;28;20034;-60
2022/08/05 05:27:52;;;;;;;2.28;0.70;;;;;;;23.89;66.62;100491.84;5014263;28;20537;-60
2022/08/05 05:30:18;;;;;;;1.73;0.93;;;;;;;23.90;66.64;100488.13;5008048;28;20172;-60
2022/08/05 05:32:44;;;;;;;2.40;0.88;;;;;;;23.96;66.75;100486.41;5010026;28;20553;-59
2022/08/05 05:35:10;;;;;;;1.27;0.70;;;;;;;24.04;66.41;100491.38;5022972;28;20030;-58
2022/08/05 05:37:53;;;;;;;2.90;0.98;;;;;;;24.03;66.64;100493.22;5008945;28;20033;-58
2022/08/05 05:40:22;;;;;;;2.10;1.00;;;;;;;24.02;66.72;100494.28;5013743;28;20045;-59
2022/08/05 05:42:49;;;;;;;0.82;0.60;;;;;;;24.01;67.19;100489.19;5014628;28;20049;-58
2022/08/05 05:45:15;;;;;;;4.05;0.73;;;;;;;23.97;67.38;100488.84;5027228;28;20033;-60
2022/08/05 05:47:41;;;;;;;4.15;0.80;;;;;;;23.99;67.67;100489.41;5027704;28;20038;-59
2022/08/05 05:50:09;;;;;;;1.05;0.80;;;;;;;23.99;67.27;100486.75;5026831;28;20502;-59
2022/08/05 05:52:35;;;;;;;1.45;0.70;;;;;;;24.05;67.46;100480.50;5024345;28;20060;-58
2022/08/05 05:55:02;;;;;;;2.08;0.77;;;;;;;24.14;67.11;100484.41;5022471;28;20033;-59
2022/08/05 05:57:28;;;;;;;5.75;1.10;;;;;;;24.28;66.41;100484.19;5027492;28;20033;-58
2022/08/05 05:59:53;;;;;;;2.95;0.95;;;;;;;24.40;65.85;100488.47;5026398;28;20033;-59
2022/08/05 06:02:19;;;;;;;3.28;0.60;;;;;;;24.57;65.45;100483.22;5026114;28;20622;-59
2022/08/05 06:04:44;;;;;;;3.47;0.70;;;;;;;24.70;64.96;100488.25;5024785;28;20025;-58
2022/08/05 06:07:10;;;;;;;3.00;0.63;;;;;;;24.77;64.86;100488.94;5026258;28;20041;-57
2022/08/05 06:09:35;;;;;;;2.20;0.80;;;;;;;24.79;64.73;100489.50;5024984;28;20486;-58
2022/08/05 06:12:01;;;;;;;1.98;0.80;;;;;;;24.87;64.78;100490.19;5025842;28;20076;-59
2022/08/05 06:14:27;;;;;;;1.50;0.90;;;;;;;24.92;64.71;100487.59;5025545;28;20040;-58
2022/08/05 06:16:52;;;;;;;2.70;0.70;;;;;;;24.96;64.75;100491.44;5027037;28;20033;-58
2022/08/05 06:19:18;;;;;;;1.25;0.60;;;;;;;25.09;64.05;100497.28;5026541;28;20025;-58
2022/08/05 06:21:45;;;;;;;3.40;0.52;;;;;;;25.15;63.93;100492.84;5026752;28;20500;-58
2022/08/05 06:24:10;;;;;;;2.88;0.70;;;;;;;25.27;63.63;100488.28;5023546;28;20069;-59
2022/08/05 06:26:36;;;;;;;3.67;0.60;;;;;;;25.38;63.27;100490.06;5026808;28;20111;-59
2022/08/05 06:29:02;;;;;;;1.90;0.82;;;;;;;25.45;62.93;100489.91;5026318;28;20040;-59
2022/08/05 06:31:27;;;;;;;1.88;0.50;;;;;;;25.45;62.65;100497.91;5026278;28;20040;-61
2022/08/05 06:33:53;;;;;;;4.75;0.70;;;;;;;25.57;62.46;100497.81;5026437;28;20120;-60
2022/08/05 06:36:18;;;;;;;0.93;0.63;;;;;;;25.72;61.36;100490.09;5025558;28;20071;-61
2022/08/05 06:38:45;;;;;;;2.45;0.65;;;;;;;25.85;61.06;100487.09;5025781;28;20068;-60
2022/08/05 06:41:10;;;;;;;1.15;0.50;;;;;;;26.05;59.99;100484.69;5028189;28;20049;-60
2022/08/05 06:43:36;;;;;;;1.52;0.60;;;;;;;26.21;59.48;100482.25;5029192;28;20048;-58
2022/08/05 06:46:02;;;;;;;4.70;1.02;;;;;;;26.33;59.41;100485.66;5029635;28;20037;-59
2022/08/05 06:48:28;;;;;;;2.35;0.80;;;;;;;26.46;59.00;100485.28;5017426;28;20029;-60
2022/08/05 06:50:53;;;;;;;0.95;0.55;;;;;;;26.58;58.36;100493.16;5017736;28;20606;-61
2022/08/05 06:53:19;;;;;;;4.30;0.68;;;;;;;26.67;58.27;100491.66;5021068;28;20369;-59
2022/08/05 06:55:44;;;;;;;17.13;1.60;;;;;;;26.71;57.86;100485.56;5013583;28;20045;-59
2022/08/05 06:58:10;;;;;;;13.65;1.20;;;;;;;26.81;57.81;100486.75;5014719;28;20378;-58
2022/08/05 07:00:35;;;;;;;21.65;1.85;;;;;;;26.93;57.22;100484.75;5014365;28;20033;-59
2022/08/05 07:03:00;;;;;;;4.38;0.60;;;;;;;27.08;56.52;100482.22;5011269;28;20575;-65
2022/08/05 07:05:26;;;;;;;2.58;0.60;;;;;;;27.15;56.34;100479.34;5014247;28;20565;-64
2022/08/05 07:07:52;;;;;;;1.63;0.50;;;;;;;27.21;55.83;100489.84;5013706;28;20025;-62
2022/08/05 07:10:17;;;;;;;2.78;0.50;;;;;;;27.32;55.26;100485.41;5013570;28;20032;-64
2022/08/05 07:18:11;;;;;;;1.13;0.60;;;;;;;27.67;54.42;100482.22;5012167;28;20107;-63
2022/08/05 07:20:36;;;;;;;1.95;0.50;;;;;;;27.75;54.60;100477.19;5011128;28;20132;-62
2022/08/05 07:23:02;;;;;;;1.77;0.77;;;;;;;27.93;54.19;100475.13;5012951;28;20052;-63
2022/08/05 07:25:28;;;;;;;1.48;0.60;;;;;;;28.06;53.11;100480.84;5012764;28;20038;-61
2022/08/05 07:27:55;;;;;;;4.85;0.50;;;;;;;28.17;52.61;100472.88;5012112;28;20033;-63
2022/08/05 07:30:21;;;;;;;3.33;0.70;;;;;;;28.24;52.41;100478.84;5010755;28;20047;-60
2022/08/05 07:32:46;;;;;;;2.55;0.55;;;;;;;28.25;52.54;100475.09;5013603;28;20493;-60
2022/08/05 07:35:12;;;;;;;3.63;0.50;;;;;;;28.31;52.17;100471.38;5010201;28;20026;-62
2022/08/05 07:37:39;;;;;;;1.30;0.43;;;;;;;28.44;51.02;100465.50;5010351;28;20030;-63
2022/08/05 07:40:06;;;;;;;0.93;0.60;;;;;;;28.76;50.62;100464.56;5009295;28;20033;-63
2022/08/05 07:42:32;;;;;;;1.90;0.52;;;;;;;29.01;50.42;100464.59;5011212;28;20127;-63
2022/08/05 07:44:58;;;;;;;2.75;0.50;;;;;;;29.17;49.17;100462.75;5007952;28;20120;-60
2022/08/05 07:47:24;;;;;;;2.35;0.65;;;;;;;29.26;49.32;100461.97;5010812;28;20152;-63
2022/08/05 07:49:53;;;;;;;2.03;0.77;;;;;;;29.57;47.83;100464.66;5015048;28;20666;-59
2022/08/05 07:52:19;;;;;;;1.20;0.40;;;;;;;29.65;47.27;100464.91;5009852;28;20292;-61
2022/08/05 07:54:45;;;;;;;3.22;0.40;;;;;;;29.71;46.94;100466.53;5009542;28;20040;-60
2022/08/05 07:57:11;;;;;;;2.88;0.40;;;;;;;29.81;47.53;100465.66;5009343;28;20040;-60
2022/08/05 07:59:36;;;;;;;5.38;0.70;;;;;;;29.95;46.50;100461.34;5014410;28;20046;-60
2022/08/05 08:02:02;;;;;;;4.43;0.47;;;;;;;30.15;46.07;100465.09;5020637;28;20032;-59
2022/08/05 08:04:28;;;;;;;2.88;0.43;;;;;;;30.45;44.92;100469.53;5018930;28;20410;-59
2022/08/05 08:06:54;;;;;;;3.15;0.40;;;;;;;30.54;44.79;100463.28;5015936;28;20026;-60
2022/08/05 08:09:23;;;;;;;1.85;0.50;;;;;;;30.59;43.82;100462.50;5020064;28;20438;-60
2022/08/05 08:11:48;;;;;;;3.47;0.60;;;;;;;30.74;43.76;100461.59;5024743;28;20041;-59
2022/08/05 08:14:14;;;;;;;5.40;1.75;;;;;;;30.74;42.85;100461.59;5024390;28;20028;-60
2022/08/05 08:16:39;;;;;;;1.38;0.40;;;;;;;30.69;42.87;100465.13;5028204;28;20466;-60
2022/08/05 08:19:05;;;;;;;0.65;0.35;;;;;;;30.90;42.92;100461.22;5028573;28;20438;-59
2022/08/05 08:21:31;;;;;;;1.67;0.50;;;;;;;31.07;42.76;100460.84;5015933;28;20083;-61
2022/08/05 08:23:56;;;;;;;1.98;0.35;;;;;;;31.41;42.09;100460.06;5026891;28;20033;-59
2022/08/05 08:26:22;;;;;;;1.05;0.43;;;;;;;31.31;41.79;100460.94;5022594;28;20033;-60
2022/08/05 08:28:48;;;;;;;2.42;0.47;;;;;;;31.23;41.76;100462.34;5023856;28;20048;-61
2022/08/05 08:31:13;;;;;;;1.95;0.55;;;;;;;31.36;42.23;100460.91;5023335;28;20041;-60
2022/08/05 08:33:39;;;;;;;1.17;0.40;;;;;;;31.70;42.28;100465.44;5021529;28;20474;-58
2022/08/05 08:36:06;;;;;;;0.77;0.50;;;;;;;31.77;41.67;100455.94;5026228;28;20044;-61
2022/08/05 08:38:32;;;;;;;1.88;0.43;;;;;;;31.89;41.63;100464.44;5003519;28;20812;-60
2022/08/05 08:40:59;;;;;;;1.58;0.45;;;;;;;31.80;41.36;100457.28;5021383;28;20025;-61
2022/08/05 08:43:25;;;;;;;1.05;0.40;;;;;;;31.82;41.20;100455.91;5005418;28;20104;-61
2022/08/05 08:45:53;;;;;;;2.25;0.40;;;;;;;31.84;41.50;100461.81;5007901;28;20045;-59
2022/08/05 08:48:19;;;;;;;1.25;0.47;;;;;;;32.08;41.20;100461.03;4991210;28;20417;-61
2022/08/05 08:50:46;;;;;;;0.52;0.30;;;;;;;32.33;40.59;100455.34;5006862;28;20034;-60
2022/08/05 08:53:14;;;;;;;1.10;0.50;;;;;;;32.52;40.32;100460.75;5003698;28;20801;-61
2022/08/05 08:55:40;;;;;;;3.38;0.60;;;;;;;32.74;39.83;100460.16;5005758;28;20076;-61
2022/08/05 08:58:07;;;;;;;2.28;0.40;;;;;;;32.82;39.81;100454.16;4999581;28;20836;-60
2022/08/05 09:00:33;;;;;;;2.72;0.47;;;;;;;32.57;39.71;100445.31;5006843;28;20045;-60
2022/08/05 09:02:59;;;;;;;2.30;0.40;;;;;;;32.28;39.28;100452.69;5006917;28;20398;-60
2022/08/05 09:05:24;;;;;;;2.42;0.40;;;;;;;32.29;39.83;100449.72;5007970;28;20409;-60
2022/08/05 09:07:51;;;;;;;1.58;0.40;;;;;;;32.38;39.85;100447.19;5008060;28;20026;-60
2022/08/05 09:10:18;;;;;;;2.35;0.32;;;;;;;32.62;40.02;100449.81;5008505;28;20048;-60
2022/08/05 09:12:44;;;;;;;0.63;0.30;;;;;;;32.70;40.54;100440.25;5006707;28;20037;-60
2022/08/05 09:15:09;;;;;;;2.50;0.30;;;;;;;32.60;41.19;100442.03;5002831;28;20067;-61
2022/08/05 09:17:35;;;;;;;3.75;0.50;;;;;;;32.66;40.50;100440.84;4995974;28;20151;-60
2022/08/05 09:20:03;;;;;;;4.50;0.98;;;;;;;32.57;39.90;100431.03;5001700;28;20157;-60
2022/08/05 09:22:48;;;;;;;0.55;0.30;;;;;;;32.52;40.33;100433.78;5000442;28;20384;-60
2022/08/05 09:25:18;;;;;;;4.07;0.55;;;;;;;32.36;39.90;100438.56;4994441;28;20758;-64
2022/08/05 09:27:44;;;;;;;0.73;0.30;;;;;;;32.22;40.49;100443.06;5004051;28;20033;-63
2022/08/05 09:30:09;;;;;;;2.08;0.30;;;;;;;32.06;40.22;100441.63;5006181;28;20030;-63
2022/08/05 09:32:36;;;;;;;6.18;0.40;;;;;;;31.89;40.58;100439.41;5005809;28;20174;-63
2022/08/05 09:35:09;;;;;;;2.65;0.30;;;;;;;32.01;40.27;100434.41;5002730;28;20582;-62
2022/08/05 09:37:34;;;;;;;3.45;0.40;;;;;;;32.29;40.59;100438.13;5006767;28;20034;-62
2022/08/05 09:40:00;;;;;;;1.02;0.30;;;;;;;32.27;39.95;100429.53;5006672;28;20045;-62
2022/08/05 09:42:37;;;;;;;1.15;0.30;;;;;;;32.23;39.88;100434.69;5009160;28;20041;-62
2022/08/05 09:45:06;;;;;;;2.05;0.50;;;;;;;32.18;39.45;100434.72;5008628;28;20537;-63
2022/08/05 09:47:31;;;;;;;2.78;0.30;;;;;;;32.20;40.47;100431.75;5007235;28;20113;-61
2022/08/05 09:49:57;;;;;;;1.27;0.30;;;;;;;32.31;39.71;100423.28;5011145;28;20371;-63
2022/08/05 09:52:28;;;;;;;3.15;0.50;;;;;;;32.38;39.92;100414.03;5015954;28;20445;-61
2022/08/05 09:54:57;;;;;;;3.03;0.40;;;;;;;32.37;40.06;100407.03;5013967;28;20440;-64
2022/08/05 09:57:44;;;;;;;2.15;0.70;;;;;;;32.49;40.65;100416.28;5005106;28;20025;-61
2022/08/05 10:00:19;;;;;;;1.92;1.05;;;;;;;32.34;40.15;100411.09;5020817;28;20041;-64
2022/08/05 10:02:50;;;;;;;1.25;0.40;;;;;;;32.37;40.19;100407.03;5009670;28;20026;-65
2022/08/05 10:05:21;;;;;;;1.70;0.40;;;;;;;32.51;39.70;100416.81;5007137;28;20030;-63
2022/08/05 10:08:00;;;;;;;2.20;0.30;;;;;;;32.71;39.65;100409.50;4991328;28;20041;-61
2022/08/05 10:10:37;;;;;;;3.40;0.32;;;;;;;32.81;39.98;100406.69;5017267;28;20061;-62
2022/08/05 10:13:05;;;;;;;1.92;0.70;;;;;;;32.83;39.46;100409.88;5010506;28;20154;-61
2022/08/05 10:15:36;;;;;;;0.93;0.38;;;;;;;32.83;39.35;100404.50;5015826;28;20064;-63
2022/08/05 10:18:04;;;;;;;4.00;0.40;;;;;;;32.74;39.21;100400.81;5004070;28;20029;-63
2022/08/05 10:20:47;;;;;;;3.47;0.40;;;;;;;32.67;39.60;100412.78;5009104;28;20053;-65
2022/08/05 10:23:21;;;;;;;1.92;0.40;;;;;;;32.81;39.34;100404.78;5004776;28;20038;-63
2022/08/05 10:25:47;;;;;;;1.45;0.32;;;;;;;32.75;38.94;100408.66;5005012;28;20489;-61
2022/08/05 10:28:14;;;;;;;1.48;0.45;;;;;;;32.55;39.46;100395.47;4997851;28;20121;-62
2022/08/05 10:30:39;;;;;;;1.60;0.40;;;;;;;32.55;39.65;100404.34;5017340;28;20473;-63
2022/08/05 10:33:05;;;;;;;4.63;0.50;;;;;;;32.75;39.47;100405.94;5014087;28;20037;-62
2022/08/05 10:35:31;;;;;;;2.45;0.40;;;;;;;32.80;39.11;100405.06;5013387;28;20082;-64
2022/08/05 10:38:01;;;;;;;2.72;0.50;;;;;;;32.66;39.28;100397.69;5010617;28;20038;-61
2022/08/05 10:40:50;;;;;;;0.80;0.32;;;;;;;32.60;39.39;100398.09;5019241;28;20037;-61
2022/08/05 10:43:46;;;;;;;5.75;0.40;;;;;;;32.73;39.92;100400.00;5024324;28;20083;-64
2022/08/05 10:46:16;;;;;;;1.58;0.50;;;;;;;32.88;39.21;100389.03;5025250;28;20485;-63
2022/08/05 10:48:43;;;;;;;4.05;0.45;;;;;;;32.92;39.43;100386.53;5014729;28;20433;-64
2022/08/05 10:51:17;;;;;;;0.98;0.50;;;;;;;32.84;38.94;100392.59;5028658;28;20033;-62
2022/08/05 10:53:44;;;;;;;1.70;0.45;;;;;;;32.85;39.47;100391.50;5020330;28;20044;-64
2022/08/05 10:56:16;;;;;;;1.77;0.40;;;;;;;32.90;39.39;100386.84;5028576;28;20037;-63
2022/08/05 10:58:51;;;;;;;1.30;0.40;;;;;;;32.83;39.66;100391.00;5023790;28;20041;-62
2022/08/05 11:01:26;;;;;;;2.38;0.30;;;;;;;32.81;38.88;100395.88;5018913;28;20057;-62
2022/08/05 11:04:18;;;;;;;;;;;;;;;32.62;39.56;100382.38;5022595;28;20029;-63
2022/08/05 11:07:05;;;;;;;4.32;0.40;;;;;;;32.68;37.92;100392.00;5022569;28;19925;-60
2022/08/05 11:09:44;;;;;;;1.58;0.32;;;;;;;32.56;37.36;100381.69;5019787;28;20036;-61
2022/08/05 11:12:28;;;;;;;1.17;0.30;;;;;;;32.37;38.11;100378.19;5020594;28;20478;-61
2022/08/05 11:15:15;;;;;;;1.63;0.45;;;;;;;32.55;37.48;100379.28;5011839;28;20038;-61
2022/08/05 11:17:52;;;;;;;3.03;0.40;;;;;;;32.49;38.14;100381.25;5017496;28;20029;-60
2022/08/05 11:20:39;;;;;;;0.70;0.40;;;;;;;32.43;38.19;100379.72;5021174;28;20060;-62
2022/08/05 11:23:50;;;;;;;5.07;0.40;;;;;;;32.47;37.83;100377.22;5014118;28;20393;-61
2022/08/05 11:26:16;;;;;;;2.53;0.50;;;;;;;32.42;39.12;100375.41;5011383;28;20196;-61
2022/08/05 11:28:44;;;;;;;2.58;0.30;;;;;;;32.40;38.72;100374.09;5019781;28;20124;-60
2022/08/05 11:31:10;;;;;;;3.30;0.40;;;;;;;32.39;38.98;100367.91;5012808;28;20088;-61
2022/08/05 11:33:35;;;;;;;3.28;0.50;;;;;;;32.51;39.18;100370.97;5021540;28;20025;-60
2022/08/05 11:36:06;;;;;;;0.80;0.57;;;;;;;32.66;38.32;100368.00;5022359;28;20088;-60
2022/08/05 11:38:40;;;;;;;2.42;0.50;;;;;;;32.73;38.30;100372.25;5020035;28;20040;-60